createdAt,value
2017-08-18T00:00:37.026Z,3.20
2017-08-18T00:01:37.013Z,3.40
2017-08-18T00:02:37.009Z,3.30
2017-08-18T00:03:37.009Z,3.30
2017-08-18T00:04:37.002Z,3.20
2017-08-18T00:05:36.999Z,3.50
2017-08-18T00:06:36.991Z,3.50
2017-08-18T00:07:36.988Z,3.40
2017-08-18T00:08:36.983Z,3.60
2017-08-18T00:09:36.976Z,3.30
2017-08-18T00:10:36.975Z,3.60
2017-08-18T00:11:36.962Z,3.90
2017-08-18T00:12:36.955Z,3.80
2017-08-18T00:13:36.952Z,3.10
2017-08-18T00:14:36.945Z,3.50
2017-08-18T00:15:36.942Z,3.40
2017-08-18T00:16:36.935Z,3.60
2017-08-18T00:17:36.932Z,3.70
2017-08-18T00:18:36.923Z,3.70
2017-08-18T00:19:36.924Z,3.50
2017-08-18T00:20:36.918Z,3.40
2017-08-18T00:21:36.912Z,3.40
2017-08-18T00:22:36.909Z,3.70
2017-08-18T00:23:36.900Z,3.50
2017-08-18T00:24:36.892Z,3.60
2017-08-18T00:25:36.889Z,3.70
2017-08-18T00:26:36.882Z,3.80
2017-08-18T00:27:36.881Z,3.90
2017-08-18T00:28:36.877Z,3.40
2017-08-18T00:29:36.870Z,4.10
2017-08-18T00:30:36.868Z,3.30
2017-08-18T00:31:36.860Z,3.40
2017-08-18T00:32:36.857Z,3.60
2017-08-18T00:33:36.849Z,3.50
2017-08-18T00:34:36.847Z,3.20
2017-08-18T00:35:36.837Z,3.40
2017-08-18T00:36:36.829Z,3.40
2017-08-18T00:37:36.826Z,3.20
2017-08-18T00:38:36.819Z,3.20
2017-08-18T00:39:36.813Z,3.80
2017-08-18T00:40:36.809Z,3.30
2017-08-18T00:41:36.802Z,3.50
2017-08-18T00:42:36.798Z,3.60
2017-08-18T00:43:36.798Z,3.10
2017-08-18T00:44:36.790Z,3.30
2017-08-18T00:45:36.786Z,3.30
2017-08-18T00:46:36.780Z,3.60
2017-08-18T00:47:36.779Z,3.50
2017-08-18T00:48:36.769Z,3.40
2017-08-18T00:49:36.765Z,3.60
2017-08-18T00:50:36.758Z,3.10
2017-08-18T00:51:36.750Z,3.30
2017-08-18T00:52:36.747Z,3.70
2017-08-18T00:53:36.742Z,3.40
2017-08-18T00:54:36.736Z,3.70
2017-08-18T00:55:36.731Z,3.20
2017-08-18T00:56:36.723Z,3.60
2017-08-18T00:57:36.719Z,3.60
2017-08-18T00:58:36.713Z,3.20
2017-08-18T00:59:36.713Z,4.10
2017-08-18T01:00:36.710Z,3.50
2017-08-18T01:01:36.702Z,3.40
2017-08-18T01:02:36.699Z,3.40
2017-08-18T01:03:36.692Z,3.30
2017-08-18T01:04:36.689Z,2.80
2017-08-18T01:05:36.687Z,3.40
2017-08-18T01:06:36.679Z,3.30
2017-08-18T01:07:36.670Z,2.90
2017-08-18T01:08:36.661Z,3.10
2017-08-18T01:09:36.658Z,2.80
2017-08-18T01:10:36.651Z,3.20
2017-08-18T01:11:36.647Z,3.00
2017-08-18T01:12:36.643Z,2.90
2017-08-18T01:13:36.636Z,3.00
2017-08-18T01:14:36.634Z,3.20
2017-08-18T01:15:36.632Z,3.00
2017-08-18T01:16:36.625Z,3.10
2017-08-18T01:17:36.623Z,2.70
2017-08-18T01:18:36.616Z,3.10
2017-08-18T01:19:36.613Z,3.30
2017-08-18T01:20:36.606Z,2.90
2017-08-18T01:21:36.603Z,3.10
2017-08-18T01:22:36.620Z,3.20
2017-08-18T01:23:36.589Z,2.90
2017-08-18T01:24:36.582Z,2.80
2017-08-18T01:25:36.577Z,3.10
2017-08-18T01:26:36.573Z,2.90
2017-08-18T01:27:36.570Z,2.90
2017-08-18T01:28:36.566Z,2.80
2017-08-18T01:29:36.559Z,3.30
2017-08-18T01:30:36.856Z,2.90
2017-08-18T01:31:36.550Z,3.00
2017-08-18T01:32:36.541Z,3.00
2017-08-18T01:33:36.538Z,2.90
2017-08-18T01:34:36.531Z,3.00
2017-08-18T01:35:36.528Z,3.30
2017-08-18T01:36:36.520Z,2.90
2017-08-18T01:37:36.518Z,3.10
2017-08-18T01:38:36.509Z,2.80
2017-08-18T01:39:36.510Z,3.30
2017-08-18T01:40:36.506Z,3.40
2017-08-18T01:41:36.499Z,3.40
2017-08-18T01:42:36.496Z,3.60
2017-08-18T01:43:36.492Z,3.50
2017-08-18T01:44:36.483Z,3.00
2017-08-18T01:45:36.480Z,3.20
2017-08-18T01:46:36.474Z,3.00
2017-08-18T01:47:36.465Z,3.40
2017-08-18T01:48:36.460Z,3.40
2017-08-18T01:49:36.454Z,3.00
2017-08-18T01:50:36.450Z,3.50
2017-08-18T01:51:36.442Z,3.50
2017-08-18T01:52:36.443Z,3.10
2017-08-18T01:53:36.433Z,3.30
2017-08-18T01:54:36.435Z,3.70
2017-08-18T01:55:36.429Z,2.80
2017-08-18T01:56:36.420Z,2.90
2017-08-18T01:57:36.414Z,3.40
2017-08-18T01:58:36.410Z,3.00
2017-08-18T01:59:36.405Z,3.40
2017-08-18T02:00:36.402Z,3.10
2017-08-18T02:01:36.400Z,3.70
2017-08-18T02:02:36.392Z,3.20
2017-08-18T02:03:36.382Z,3.20
2017-08-18T02:04:36.373Z,3.30
2017-08-18T02:05:36.374Z,3.40
2017-08-18T02:06:36.363Z,3.30
2017-08-18T02:07:36.361Z,3.40
2017-08-18T02:08:36.351Z,3.00
2017-08-18T02:09:36.349Z,3.10
2017-08-18T02:10:36.341Z,3.30
2017-08-18T02:11:36.341Z,3.50
2017-08-18T02:12:36.337Z,3.70
2017-08-18T02:13:36.330Z,3.00
2017-08-18T02:14:36.327Z,2.80
2017-08-18T02:15:36.322Z,3.30
2017-08-18T02:16:36.315Z,3.30
2017-08-18T02:17:36.311Z,3.20
2017-08-18T02:18:36.303Z,2.90
2017-08-18T02:19:36.293Z,3.00
2017-08-18T02:20:36.289Z,3.50
2017-08-18T02:21:36.284Z,3.30
2017-08-18T02:22:36.279Z,3.10
2017-08-18T02:23:36.275Z,2.90
2017-08-18T02:24:36.268Z,3.30
2017-08-18T02:25:36.262Z,3.20
2017-08-18T02:26:36.259Z,3.10
2017-08-18T02:27:36.258Z,3.40
2017-08-18T02:28:36.249Z,3.40
2017-08-18T02:29:36.248Z,3.00
2017-08-18T02:30:36.241Z,3.60
2017-08-18T02:31:36.233Z,3.30
2017-08-18T02:32:36.527Z,3.40
2017-08-18T02:33:36.221Z,3.10
2017-08-18T02:34:36.218Z,3.10
2017-08-18T02:35:36.217Z,3.30
2017-08-18T02:36:36.210Z,3.00
2017-08-18T02:37:36.205Z,2.80
2017-08-18T02:38:36.199Z,3.10
2017-08-18T02:39:36.196Z,3.30
2017-08-18T02:40:36.189Z,3.00
2017-08-18T02:41:36.187Z,3.30
2017-08-18T02:42:36.179Z,2.70
2017-08-18T02:43:36.170Z,2.70
2017-08-18T02:44:36.167Z,2.80
2017-08-18T02:45:36.159Z,2.80
2017-08-18T02:46:36.157Z,3.00
2017-08-18T02:47:36.152Z,2.60
2017-08-18T02:48:36.144Z,2.90
2017-08-18T02:49:36.141Z,3.10
2017-08-18T02:50:36.136Z,3.20
2017-08-18T02:51:36.134Z,2.90
2017-08-18T02:52:36.138Z,2.90
2017-08-18T02:53:36.123Z,2.80
2017-08-18T02:54:36.121Z,2.70
2017-08-18T02:55:36.115Z,2.80
2017-08-18T02:56:36.111Z,3.00
2017-08-18T02:57:36.104Z,2.60
2017-08-18T02:58:36.102Z,3.10
2017-08-18T02:59:36.091Z,3.10
2017-08-18T03:00:36.085Z,2.60
2017-08-18T03:01:36.081Z,3.00
2017-08-18T03:02:36.077Z,3.70
2017-08-18T03:03:36.069Z,2.90
2017-08-18T03:04:36.067Z,2.60
2017-08-18T03:05:36.060Z,2.90
2017-08-18T03:06:36.057Z,3.00
2017-08-18T03:07:36.057Z,3.40
2017-08-18T03:08:36.048Z,3.20
2017-08-18T03:09:36.047Z,2.50
2017-08-18T03:10:36.040Z,3.10
2017-08-18T03:11:36.038Z,2.90
2017-08-18T03:12:36.029Z,2.60
2017-08-18T03:13:36.027Z,3.30
2017-08-18T03:14:36.032Z,2.80
2017-08-18T03:15:36.011Z,2.90
2017-08-18T03:16:36.008Z,3.10
2017-08-18T03:17:36.001Z,2.90
2017-08-18T03:18:35.998Z,3.30
2017-08-18T03:19:35.994Z,3.20
2017-08-18T03:20:35.986Z,3.50
2017-08-18T03:21:35.985Z,2.90
2017-08-18T03:22:35.976Z,3.10
2017-08-18T03:23:35.975Z,3.00
2017-08-18T03:24:35.971Z,3.10
2017-08-18T03:25:35.964Z,3.00
2017-08-18T03:26:35.964Z,3.30
2017-08-18T03:27:35.956Z,3.10
2017-08-18T03:28:35.954Z,3.20
2017-08-18T03:29:35.944Z,3.00
2017-08-18T03:30:35.944Z,2.90
2017-08-18T03:31:35.934Z,2.80
2017-08-18T03:32:35.925Z,3.00
2017-08-18T03:33:35.924Z,2.70
2017-08-18T03:34:35.916Z,2.70
2017-08-18T03:35:35.917Z,2.90
2017-08-18T03:36:35.913Z,3.00
2017-08-18T03:37:35.908Z,2.80
2017-08-18T03:38:35.903Z,2.80
2017-08-18T03:39:35.895Z,3.00
2017-08-18T03:40:35.886Z,2.60
2017-08-18T03:41:35.883Z,3.30
2017-08-18T03:42:35.877Z,2.90
2017-08-18T03:43:35.874Z,2.80
2017-08-18T03:44:35.866Z,2.90
2017-08-18T03:45:35.863Z,2.70
2017-08-18T03:46:35.857Z,2.40
2017-08-18T03:47:35.857Z,2.70
2017-08-18T03:48:35.853Z,2.40
2017-08-18T03:49:35.846Z,2.90
2017-08-18T03:50:35.844Z,2.50
2017-08-18T03:51:35.839Z,2.70
2017-08-18T03:52:35.831Z,3.00
2017-08-18T03:53:35.832Z,3.10
2017-08-18T03:54:35.823Z,3.10
2017-08-18T03:55:35.812Z,2.50
2017-08-18T03:56:35.809Z,2.60
2017-08-18T03:57:35.801Z,2.60
2017-08-18T03:58:35.799Z,3.30
2017-08-18T03:59:35.792Z,3.10
2017-08-18T04:00:35.790Z,3.10
2017-08-18T04:01:35.781Z,2.60
2017-08-18T04:02:35.779Z,2.90
2017-08-18T04:03:35.778Z,3.50
2017-08-18T04:04:35.770Z,3.00
2017-08-18T04:05:35.768Z,3.40
2017-08-18T04:06:35.761Z,3.10
2017-08-18T04:07:35.756Z,3.00
2017-08-18T04:08:35.756Z,2.90
2017-08-18T04:09:35.745Z,2.70
2017-08-18T04:10:35.743Z,3.10
2017-08-18T04:11:35.732Z,3.00
2017-08-18T04:12:35.725Z,3.00
2017-08-18T04:13:35.722Z,3.00
2017-08-18T04:14:35.715Z,3.20
2017-08-18T04:15:35.712Z,2.90
2017-08-18T04:16:35.705Z,3.10
2017-08-18T04:17:35.701Z,3.10
2017-08-18T04:18:35.694Z,3.00
2017-08-18T04:19:35.693Z,3.10
2017-08-18T04:20:35.690Z,3.40
2017-08-18T04:21:35.683Z,3.60
2017-08-18T04:22:35.680Z,3.00
2017-08-18T04:23:35.674Z,3.30
2017-08-18T04:24:35.666Z,3.10
2017-08-18T04:25:35.663Z,2.90
2017-08-18T04:26:35.656Z,2.80
2017-08-18T04:27:35.646Z,3.10
2017-08-18T04:28:35.646Z,3.30
2017-08-18T04:29:35.636Z,3.10
2017-08-18T04:30:35.635Z,3.30
2017-08-18T04:31:35.625Z,3.20
2017-08-18T04:32:35.622Z,3.60
2017-08-18T04:33:35.614Z,3.50
2017-08-18T04:34:35.613Z,3.40
2017-08-18T04:35:35.611Z,2.90
2017-08-18T04:36:35.603Z,3.40
2017-08-18T04:37:35.601Z,3.30
2017-08-18T04:38:35.592Z,3.50
2017-08-18T04:39:35.584Z,4.00
2017-08-18T04:40:35.587Z,3.20
2017-08-18T04:41:35.573Z,3.50
2017-08-18T04:42:35.569Z,3.50
2017-08-18T04:43:35.569Z,3.30
2017-08-18T04:44:35.560Z,3.30
2017-08-18T04:45:35.557Z,3.20
2017-08-18T04:46:35.551Z,3.50
2017-08-18T04:47:35.548Z,3.30
2017-08-18T04:48:35.540Z,3.30
2017-08-18T04:49:35.537Z,3.40
2017-08-18T04:50:35.530Z,3.60
2017-08-18T04:51:35.520Z,3.40
2017-08-18T04:52:35.516Z,3.60
2017-08-18T04:53:35.509Z,3.60
2017-08-18T04:54:35.507Z,3.70
2017-08-18T04:55:35.501Z,3.80
2017-08-18T04:56:35.499Z,3.30
2017-08-18T04:57:35.489Z,4.10
2017-08-18T04:58:35.482Z,4.10
2017-08-18T04:59:35.482Z,4.50
2017-08-18T05:00:35.479Z,4.10
2017-08-18T05:01:35.469Z,3.90
2017-08-18T05:02:35.467Z,4.10
2017-08-18T05:03:35.459Z,3.80
2017-08-18T05:04:35.456Z,4.50
2017-08-18T05:05:35.447Z,4.80
2017-08-18T05:06:35.446Z,4.20
2017-08-18T05:07:35.436Z,4.20
2017-08-18T05:08:35.427Z,4.10
2017-08-18T05:09:35.425Z,4.50
2017-08-18T05:10:35.417Z,4.20
2017-08-18T05:11:35.412Z,4.40
2017-08-18T05:12:35.408Z,4.30
2017-08-18T05:13:35.399Z,4.50
2017-08-18T05:14:35.396Z,4.40
2017-08-18T05:15:35.401Z,4.70
2017-08-18T05:16:35.387Z,4.50
2017-08-18T05:17:35.384Z,4.80
2017-08-18T05:18:35.377Z,4.50
2017-08-18T05:19:35.373Z,4.80
2017-08-18T05:20:35.365Z,5.10
2017-08-18T05:21:35.361Z,4.30
2017-08-18T05:22:35.354Z,4.20
2017-08-18T05:23:35.345Z,4.20
2017-08-18T05:24:35.340Z,4.40
2017-08-18T05:25:35.333Z,4.10
2017-08-18T05:26:35.339Z,4.40
2017-08-18T05:27:35.324Z,4.10
2017-08-18T05:28:35.315Z,5.10
2017-08-18T05:29:35.312Z,4.90
2017-08-18T05:30:35.304Z,4.90
2017-08-18T05:31:35.320Z,4.40
2017-08-18T05:32:35.297Z,4.50
2017-08-18T05:33:35.290Z,5.00
2017-08-18T05:34:35.287Z,4.80
2017-08-18T05:35:35.278Z,4.80
2017-08-18T05:36:35.276Z,4.80
2017-08-18T05:37:35.267Z,4.70
2017-08-18T05:38:35.263Z,4.50
2017-08-18T05:39:35.253Z,4.90
2017-08-18T05:40:35.245Z,4.30
2017-08-18T05:41:35.241Z,4.40
2017-08-18T05:42:35.233Z,4.40
2017-08-18T05:43:35.230Z,4.00
2017-08-18T05:44:35.221Z,4.60
2017-08-18T05:45:35.225Z,4.70
2017-08-18T05:46:35.209Z,4.70
2017-08-18T05:47:35.209Z,4.80
2017-08-18T05:48:35.204Z,4.60
2017-08-18T05:49:35.197Z,4.80
2017-08-18T05:50:35.194Z,4.40
2017-08-18T05:51:35.186Z,4.70
2017-08-18T05:52:35.180Z,5.00
2017-08-18T05:53:35.174Z,5.10
2017-08-18T05:54:35.169Z,5.30
2017-08-18T05:55:35.160Z,5.00
2017-08-18T05:56:35.153Z,6.30
2017-08-18T05:57:35.149Z,5.30
2017-08-18T05:58:35.142Z,6.00
2017-08-18T05:59:35.139Z,6.10
2017-08-18T06:00:35.130Z,5.30
2017-08-18T06:01:35.123Z,5.70
2017-08-18T06:02:35.119Z,5.80
2017-08-18T06:03:35.119Z,5.80
2017-08-18T06:04:35.110Z,5.70
2017-08-18T06:05:35.107Z,5.60
2017-08-18T06:06:35.099Z,5.40
2017-08-18T06:07:35.095Z,6.20
2017-08-18T06:08:35.088Z,5.90
2017-08-18T06:09:35.083Z,5.80
2017-08-18T06:10:35.080Z,5.80
2017-08-18T06:11:35.066Z,5.50
2017-08-18T06:12:35.063Z,5.40
2017-08-18T06:13:35.055Z,5.80
2017-08-18T06:14:35.051Z,5.20
2017-08-18T06:15:35.047Z,4.50
2017-08-18T06:16:35.038Z,4.80
2017-08-18T06:17:35.034Z,4.80
2017-08-18T06:18:35.027Z,4.40
2017-08-18T06:19:35.025Z,4.50
2017-08-18T06:20:35.020Z,4.40
2017-08-18T06:21:35.013Z,4.00
2017-08-18T06:22:35.009Z,3.70
2017-08-18T06:23:35.003Z,4.20
2017-08-18T06:24:34.998Z,4.20
2017-08-18T06:25:34.990Z,4.00
2017-08-18T06:26:34.988Z,4.10
2017-08-18T06:27:34.977Z,4.10
2017-08-18T06:28:34.969Z,3.20
2017-08-18T06:29:34.967Z,3.90
2017-08-18T06:30:34.959Z,3.40
2017-08-18T06:31:34.953Z,3.40
2017-08-18T06:32:34.949Z,3.50
2017-08-18T06:33:34.941Z,3.70
2017-08-18T06:34:34.939Z,3.70
2017-08-18T06:35:34.937Z,3.40
2017-08-18T06:36:34.930Z,3.40
2017-08-18T06:37:34.927Z,3.40
2017-08-18T06:38:34.919Z,3.10
2017-08-18T06:39:34.915Z,3.20
2017-08-18T06:40:34.908Z,3.30
2017-08-18T06:41:34.904Z,2.90
2017-08-18T06:42:34.899Z,3.40
2017-08-18T06:43:34.888Z,3.10
2017-08-18T06:44:34.886Z,3.40
2017-08-18T06:45:35.227Z,3.50
2017-08-18T06:46:34.875Z,3.50
2017-08-18T06:47:34.874Z,2.90
2017-08-18T06:48:34.865Z,3.50
2017-08-18T06:49:34.863Z,3.50
2017-08-18T06:50:34.856Z,3.30
2017-08-18T06:51:34.847Z,3.00
2017-08-18T06:52:34.843Z,3.50
2017-08-18T06:53:34.836Z,3.40
2017-08-18T06:54:34.834Z,3.20
2017-08-18T06:55:35.135Z,3.20
2017-08-18T06:56:34.825Z,3.40
2017-08-18T06:57:34.816Z,3.20
2017-08-18T06:58:34.812Z,3.40
2017-08-18T06:59:34.812Z,3.40
2017-08-18T07:00:34.806Z,3.30
2017-08-18T07:01:34.802Z,3.20
2017-08-18T07:02:34.797Z,3.10
2017-08-18T07:03:34.793Z,3.70
2017-08-18T07:04:34.790Z,3.50
2017-08-18T07:05:34.782Z,4.00
2017-08-18T07:06:34.781Z,3.90
2017-08-18T07:07:34.771Z,3.10
2017-08-18T07:08:34.762Z,3.80
2017-08-18T07:09:34.761Z,3.80
2017-08-18T07:10:34.755Z,3.70
2017-08-18T07:11:34.751Z,4.40
2017-08-18T07:12:34.743Z,3.70
2017-08-18T07:13:34.761Z,4.00
2017-08-18T07:14:34.734Z,3.70
2017-08-18T07:15:34.736Z,3.70
2017-08-18T07:16:34.731Z,3.50
2017-08-18T07:17:34.725Z,3.60
2017-08-18T07:18:34.723Z,3.30
2017-08-18T07:19:34.718Z,3.10
2017-08-18T07:20:34.711Z,3.20
2017-08-18T07:21:34.709Z,3.10
2017-08-18T07:22:34.702Z,3.20
2017-08-18T07:23:34.694Z,3.00
2017-08-18T07:24:34.690Z,3.30
2017-08-18T07:25:34.684Z,3.60
2017-08-18T07:26:34.682Z,3.50
2017-08-18T07:27:34.675Z,3.50
2017-08-18T07:28:34.671Z,3.80
2017-08-18T07:29:34.666Z,4.30
2017-08-18T07:30:34.664Z,4.20
2017-08-18T07:31:34.663Z,4.10
2017-08-18T07:32:34.656Z,4.30
2017-08-18T07:33:34.654Z,4.10
2017-08-18T07:34:34.649Z,4.70
2017-08-18T07:35:34.644Z,4.10
2017-08-18T07:36:34.640Z,5.20
2017-08-18T07:37:34.634Z,5.00
2017-08-18T07:38:34.633Z,5.00
2017-08-18T07:39:34.624Z,5.10
2017-08-18T07:40:34.616Z,5.20
2017-08-18T07:41:34.614Z,5.00
2017-08-18T07:42:34.608Z,4.90
2017-08-18T07:43:34.607Z,5.50
2017-08-18T07:44:34.598Z,6.20
2017-08-18T07:45:34.596Z,5.80
2017-08-18T07:46:34.589Z,5.80
2017-08-18T07:47:34.590Z,5.90
2017-08-18T07:48:34.587Z,6.20
2017-08-18T07:49:34.583Z,6.60
2017-08-18T07:50:34.578Z,6.70
2017-08-18T07:51:34.570Z,5.90
2017-08-18T07:52:34.562Z,6.40
2017-08-18T07:53:34.560Z,6.60
2017-08-18T07:54:34.555Z,5.90
2017-08-18T07:55:34.555Z,6.50
2017-08-18T07:56:34.553Z,7.50
2017-08-18T07:57:34.547Z,6.40
2017-08-18T07:58:34.543Z,6.60
2017-08-18T07:59:34.540Z,7.00
2017-08-18T08:00:34.533Z,7.50
2017-08-18T08:01:34.528Z,6.90
2017-08-18T08:02:34.526Z,6.70
2017-08-18T08:03:34.518Z,6.70
2017-08-18T08:04:34.510Z,6.80
2017-08-18T08:05:34.508Z,6.80
2017-08-18T08:06:34.502Z,7.30
2017-08-18T08:07:34.501Z,7.40
2017-08-18T08:08:34.494Z,7.00
2017-08-18T08:09:34.488Z,6.70
2017-08-18T08:10:34.487Z,7.30
2017-08-18T08:11:34.585Z,6.90
2017-08-18T08:12:34.479Z,6.50
2017-08-18T08:13:34.476Z,6.80
2017-08-18T08:14:34.470Z,6.40
2017-08-18T08:15:34.469Z,6.20
2017-08-18T08:16:34.462Z,6.20
2017-08-18T08:17:34.460Z,6.40
2017-08-18T08:18:34.454Z,6.60
2017-08-18T08:19:34.444Z,6.80
2017-08-18T08:20:34.447Z,6.10
2017-08-18T08:21:34.435Z,6.70
2017-08-18T08:22:34.435Z,6.20
2017-08-18T08:23:34.429Z,6.40
2017-08-18T08:24:34.422Z,7.10
2017-08-18T08:25:34.420Z,6.70
2017-08-18T08:26:34.416Z,8.00
2017-08-18T08:27:34.415Z,6.90
2017-08-18T08:28:34.413Z,8.00
2017-08-18T08:29:34.407Z,9.60
2017-08-18T08:30:34.405Z,9.10
2017-08-18T08:31:34.399Z,9.50
2017-08-18T08:32:34.400Z,9.90
2017-08-18T08:33:34.391Z,9.30
2017-08-18T08:34:34.389Z,9.40
2017-08-18T08:35:34.382Z,9.30
2017-08-18T08:36:34.375Z,8.90
2017-08-18T08:37:34.374Z,8.70
2017-08-18T08:38:34.369Z,8.50
2017-08-18T08:39:34.370Z,8.40
2017-08-18T08:40:34.363Z,8.20
2017-08-18T08:41:34.364Z,8.00
2017-08-18T08:42:34.361Z,7.80
2017-08-18T08:43:34.361Z,7.40
2017-08-18T08:44:34.355Z,7.90
2017-08-18T08:45:34.355Z,7.40
2017-08-18T08:46:34.352Z,9.10
2017-08-18T08:47:34.356Z,8.60
2017-08-18T08:48:34.350Z,10.20
2017-08-18T08:49:34.350Z,9.40
2017-08-18T08:50:34.348Z,10.70
2017-08-18T08:51:34.343Z,12.40
2017-08-18T08:52:34.349Z,12.70
2017-08-18T08:53:34.345Z,12.90
2017-08-18T08:54:34.346Z,11.90
2017-08-18T08:55:34.352Z,11.60
2017-08-18T08:56:34.350Z,12.20
2017-08-18T08:57:34.358Z,13.20
2017-08-18T08:58:34.351Z,10.30
2017-08-18T08:59:34.349Z,10.80
2017-08-18T09:00:34.350Z,10.90
2017-08-18T09:01:34.348Z,10.60
2017-08-18T09:02:34.352Z,10.70
2017-08-18T09:03:34.349Z,11.00
2017-08-18T09:04:34.361Z,11.40
2017-08-18T09:05:34.349Z,10.30
2017-08-18T09:06:34.364Z,11.30
2017-08-18T09:07:34.367Z,11.50
2017-08-18T09:08:34.353Z,12.00
2017-08-18T09:09:34.353Z,12.20
2017-08-18T09:10:34.353Z,11.70
2017-08-18T09:11:34.353Z,11.80
2017-08-18T09:12:34.353Z,11.70
2017-08-18T09:13:34.352Z,11.30
2017-08-18T09:14:34.352Z,11.00
2017-08-18T09:15:34.348Z,11.20
2017-08-18T09:16:34.345Z,10.60
2017-08-18T09:17:34.347Z,11.00
2017-08-18T09:18:34.344Z,10.80
2017-08-18T09:19:34.350Z,10.90
2017-08-18T09:20:34.342Z,10.90
2017-08-18T09:21:34.345Z,12.80
2017-08-18T09:22:34.339Z,13.10
2017-08-18T09:23:34.345Z,12.90
2017-08-18T09:24:34.344Z,14.20
2017-08-18T09:25:34.341Z,13.40
2017-08-18T09:26:34.344Z,14.10
2017-08-18T09:27:34.342Z,14.50
2017-08-18T09:28:34.337Z,15.40
2017-08-18T09:29:34.337Z,15.30
2017-08-18T09:30:34.335Z,16.60
2017-08-18T09:31:34.330Z,16.70
2017-08-18T09:32:34.329Z,17.10
2017-08-18T09:33:34.326Z,17.80
2017-08-18T09:34:34.325Z,18.00
2017-08-18T09:35:34.323Z,17.80
2017-08-18T09:36:34.322Z,18.60
2017-08-18T09:37:34.319Z,18.60
2017-08-18T09:38:34.319Z,18.80
2017-08-18T09:39:34.322Z,18.60
2017-08-18T09:40:34.318Z,17.80
2017-08-18T09:41:34.316Z,17.60
2017-08-18T09:42:34.312Z,17.10
2017-08-18T09:43:34.312Z,16.50
2017-08-18T09:44:34.311Z,17.50
2017-08-18T09:45:34.307Z,14.60
2017-08-18T09:46:34.307Z,15.40
2017-08-18T09:47:34.301Z,14.30
2017-08-18T09:48:34.296Z,14.50
2017-08-18T09:49:34.296Z,13.60
2017-08-18T09:50:34.292Z,13.60
2017-08-18T09:51:34.292Z,12.50
2017-08-18T09:52:34.288Z,12.90
2017-08-18T09:53:34.287Z,13.00
2017-08-18T09:54:34.283Z,11.90
2017-08-18T09:55:34.284Z,13.60
2017-08-18T09:56:34.284Z,13.30
2017-08-18T09:57:34.281Z,11.50
2017-08-18T09:58:34.280Z,12.10
2017-08-18T09:59:34.271Z,12.50
2017-08-18T10:00:34.271Z,11.60
2017-08-18T10:01:34.267Z,11.90
2017-08-18T10:02:34.268Z,10.80
2017-08-18T10:03:34.269Z,11.50
2017-08-18T10:04:34.266Z,11.90
2017-08-18T10:05:34.265Z,13.10
2017-08-18T10:06:34.261Z,10.70
2017-08-18T10:07:34.261Z,10.90
2017-08-18T10:08:34.256Z,11.50
2017-08-18T10:09:34.256Z,10.80
2017-08-18T10:10:34.252Z,12.10
2017-08-18T10:11:34.245Z,12.10
2017-08-18T10:12:34.245Z,11.60
2017-08-18T10:13:34.239Z,10.40
2017-08-18T10:14:34.241Z,11.60
2017-08-18T10:15:34.239Z,11.70
2017-08-18T10:16:34.238Z,11.10
2017-08-18T10:17:34.234Z,10.20
2017-08-18T10:18:34.229Z,11.20
2017-08-18T10:19:34.230Z,11.20
2017-08-18T10:20:34.230Z,9.50
2017-08-18T10:21:34.230Z,9.40
2017-08-18T10:22:34.225Z,8.50
2017-08-18T10:23:34.222Z,9.20
2017-08-18T10:24:34.220Z,8.60
2017-08-18T10:25:34.217Z,8.70
2017-08-18T10:26:34.216Z,8.40
2017-08-18T10:27:34.212Z,7.80
2017-08-18T10:28:34.205Z,9.40
2017-08-18T10:29:34.204Z,8.00
2017-08-18T10:30:34.202Z,9.00
2017-08-18T10:31:34.200Z,8.90
2017-08-18T10:32:34.364Z,9.60
2017-08-18T10:33:34.225Z,9.90
2017-08-18T10:34:34.195Z,10.00
2017-08-18T10:35:34.197Z,9.90
2017-08-18T10:36:34.195Z,11.50
2017-08-18T10:37:34.192Z,10.40
2017-08-18T10:38:34.186Z,9.70
2017-08-18T10:39:34.189Z,10.90
2017-08-18T10:40:34.182Z,11.60
2017-08-18T10:41:34.181Z,11.20
2017-08-18T10:42:34.177Z,11.10
2017-08-18T10:43:34.171Z,12.90
2017-08-18T10:44:34.167Z,13.80
2017-08-18T10:45:34.164Z,12.60
2017-08-18T10:46:34.167Z,14.70
2017-08-18T10:47:34.161Z,14.50
2017-08-18T10:48:34.156Z,14.50
2017-08-18T10:49:34.153Z,13.70
2017-08-18T10:50:34.150Z,12.70
2017-08-18T10:51:34.153Z,13.20
2017-08-18T10:52:34.151Z,13.90
2017-08-18T10:53:34.145Z,13.10
2017-08-18T10:54:34.146Z,14.10
2017-08-18T10:55:34.140Z,13.90
2017-08-18T10:56:34.140Z,13.20
2017-08-18T10:57:34.135Z,13.90
2017-08-18T10:58:34.134Z,13.90
2017-08-18T10:59:34.126Z,12.30
2017-08-18T11:00:34.120Z,11.70
2017-08-18T11:01:34.121Z,11.60
2017-08-18T11:02:34.117Z,11.00
2017-08-18T11:03:34.118Z,10.40
2017-08-18T11:04:34.467Z,10.80
2017-08-18T11:05:34.114Z,9.60
2017-08-18T11:06:34.111Z,9.60
2017-08-18T11:07:34.105Z,8.70
2017-08-18T11:08:34.099Z,8.50
2017-08-18T11:09:34.098Z,8.20
2017-08-18T11:10:34.094Z,8.50
2017-08-18T11:11:34.093Z,8.50
2017-08-18T11:12:34.087Z,9.10
2017-08-18T11:13:34.088Z,8.70
2017-08-18T11:14:34.082Z,9.50
2017-08-18T11:15:34.085Z,10.30
2017-08-18T11:16:34.084Z,9.50
2017-08-18T11:17:34.080Z,9.40
2017-08-18T11:18:34.079Z,8.90
2017-08-18T11:19:34.076Z,8.60
2017-08-18T11:20:34.070Z,9.50
2017-08-18T11:21:34.071Z,9.40
2017-08-18T11:22:34.065Z,9.70
2017-08-18T11:23:34.060Z,10.60
2017-08-18T11:24:34.059Z,8.70
2017-08-18T11:25:34.054Z,9.30
2017-08-18T11:26:34.054Z,8.90
2017-08-18T11:27:34.049Z,9.50
2017-08-18T11:28:34.048Z,10.20
2017-08-18T11:29:34.044Z,9.90
2017-08-18T11:30:34.043Z,10.10
2017-08-18T11:31:34.045Z,10.50
2017-08-18T11:32:34.040Z,11.30
2017-08-18T11:33:34.044Z,11.20
2017-08-18T11:34:34.035Z,12.80
2017-08-18T11:35:34.032Z,11.90
2017-08-18T11:36:34.031Z,12.20
2017-08-18T11:37:34.026Z,12.40
2017-08-18T11:38:34.026Z,12.20
2017-08-18T11:39:34.019Z,12.90
2017-08-18T11:40:34.012Z,13.10
2017-08-18T11:41:34.014Z,11.60
2017-08-18T11:42:34.007Z,11.20
2017-08-18T11:43:34.005Z,10.50
2017-08-18T11:44:33.998Z,10.90
2017-08-18T11:45:33.998Z,10.40
2017-08-18T11:46:33.993Z,9.60
2017-08-18T11:47:33.993Z,9.60
2017-08-18T11:48:33.993Z,10.10
2017-08-18T11:49:33.986Z,10.60
2017-08-18T11:50:33.984Z,10.40
2017-08-18T11:51:33.980Z,10.00
2017-08-18T11:52:33.980Z,10.00
2017-08-18T11:53:33.975Z,9.20
2017-08-18T11:54:33.969Z,8.90
2017-08-18T11:55:33.961Z,8.80
2017-08-18T11:56:33.959Z,8.00
2017-08-18T11:57:33.960Z,7.90
2017-08-18T11:58:33.952Z,8.60
2017-08-18T11:59:33.948Z,8.30
2017-08-18T12:00:33.946Z,8.40
2017-08-18T12:01:33.941Z,7.80
2017-08-18T12:02:33.941Z,8.00
2017-08-18T12:03:33.942Z,7.80
2017-08-18T12:04:33.936Z,7.40
2017-08-18T12:05:33.936Z,7.70
2017-08-18T12:06:33.934Z,7.80
2017-08-18T12:07:33.924Z,8.00
2017-08-18T12:08:33.923Z,8.20
2017-08-18T12:09:33.918Z,8.30
2017-08-18T12:10:33.917Z,8.30
2017-08-18T12:11:33.918Z,8.40
2017-08-18T12:12:33.914Z,8.90
2017-08-18T12:13:33.914Z,8.30
2017-08-18T12:14:34.209Z,8.50
2017-08-18T12:15:33.909Z,8.70
2017-08-18T12:16:33.903Z,9.00
2017-08-18T12:17:33.902Z,9.60
2017-08-18T12:18:33.898Z,9.30
2017-08-18T12:19:33.893Z,9.40
2017-08-18T12:20:33.892Z,9.70
2017-08-18T12:21:33.887Z,9.80
2017-08-18T12:22:33.887Z,10.30
2017-08-18T12:23:33.887Z,10.30
2017-08-18T12:24:33.881Z,10.80
2017-08-18T12:25:33.881Z,10.80
2017-08-18T12:26:33.876Z,10.90
2017-08-18T12:27:33.879Z,10.70
2017-08-18T12:28:33.878Z,10.60
2017-08-18T12:29:33.873Z,11.10
2017-08-18T12:30:33.874Z,11.00
2017-08-18T12:31:33.870Z,10.80
2017-08-18T12:32:33.868Z,11.60
2017-08-18T12:33:33.863Z,11.30
2017-08-18T12:34:33.864Z,11.10
2017-08-18T12:35:33.858Z,11.10
2017-08-18T12:36:33.853Z,11.50
2017-08-18T12:37:33.859Z,12.10
2017-08-18T12:38:33.848Z,11.60
2017-08-18T12:39:34.113Z,12.40
2017-08-18T12:40:33.845Z,11.10
2017-08-18T12:41:33.841Z,11.50
2017-08-18T12:42:33.840Z,12.10
2017-08-18T12:43:33.842Z,12.00
2017-08-18T12:44:33.836Z,11.60
2017-08-18T12:45:33.837Z,11.20
2017-08-18T12:46:33.836Z,11.00
2017-08-18T12:47:33.833Z,10.10
2017-08-18T12:48:33.826Z,10.00
2017-08-18T12:49:33.826Z,9.20
2017-08-18T12:50:33.822Z,9.40
2017-08-18T12:51:33.815Z,8.90
2017-08-18T12:52:33.814Z,8.90
2017-08-18T12:53:33.827Z,9.30
2017-08-18T12:54:33.813Z,9.20
2017-08-18T12:55:33.806Z,9.10
2017-08-18T12:56:33.801Z,9.10
2017-08-18T12:57:33.808Z,8.80
2017-08-18T12:58:33.798Z,8.90
2017-08-18T12:59:33.798Z,7.90
2017-08-18T13:00:33.798Z,8.50
2017-08-18T13:01:33.793Z,9.10
2017-08-18T13:02:33.793Z,8.30
2017-08-18T13:03:33.789Z,8.00
2017-08-18T13:04:33.788Z,7.80
2017-08-18T13:05:33.787Z,7.80
2017-08-18T13:06:33.783Z,8.00
2017-08-18T13:07:33.778Z,7.90
2017-08-18T13:08:33.772Z,7.40
2017-08-18T13:09:33.771Z,7.50
2017-08-18T13:10:33.767Z,6.80
2017-08-18T13:11:33.770Z,7.30
2017-08-18T13:12:33.769Z,7.10